Aalborg, Denmark
Current Conditions -  °F | °C
As of 6:50 PM on Thursday 23 Oct 2014 (Local Time) from EKYT Reporting Station
Moderate Rain Moderate Rain  
Wind Chill: 54°   Ceiling: 700
Heat Index: 54°   Visibility: 2.5mi
Dew Point: 52°   Wind: 16mph
Humidity: 94%   Direction: 170°S
Pressure: 30.03"   Gusts: NA
Location:  57.05°N, 9.92°E
Report Text: EKYT 231650Z 17014KT 4000 RA BR FEW004 BKN007 12/11 Q1017
Loading
Personal Weather Stations






























Interactive Weather Map
Tropical Storm Tracking
New forecast layout! Learn more

10-Day Weather Forecast

Advertisements
Track Severe Weather on mobile